createdAt,value
2022-11-17T00:00:43.062Z,6.05
2022-11-17T00:01:43.045Z,5.85
2022-11-17T00:02:43.101Z,5.98
2022-11-17T00:03:43.022Z,5.93
2022-11-17T00:04:43.019Z,5.90
2022-11-17T00:05:43.001Z,5.99
2022-11-17T00:06:42.991Z,5.96
2022-11-17T00:07:43.074Z,5.96
2022-11-17T00:08:43.077Z,5.93
2022-11-17T00:09:42.947Z,5.93
2022-11-17T00:10:42.927Z,5.99
2022-11-17T00:11:42.909Z,6.08
2022-11-17T00:12:42.902Z,5.98
2022-11-17T00:13:42.883Z,5.98
2022-11-17T00:14:42.875Z,6.16
2022-11-17T00:15:42.858Z,6.11
2022-11-17T00:16:42.846Z,6.10
2022-11-17T00:17:42.829Z,6.08
2022-11-17T00:18:42.819Z,6.16
2022-11-17T00:19:42.806Z,6.30
2022-11-17T00:20:42.799Z,6.30
2022-11-17T00:21:42.784Z,6.24
2022-11-17T00:22:42.767Z,6.19
2022-11-17T00:23:42.755Z,6.14
2022-11-17T00:24:42.857Z,6.19
2022-11-17T00:25:42.720Z,6.30
2022-11-17T00:26:42.711Z,6.25
2022-11-17T00:27:42.692Z,6.19
2022-11-17T00:28:42.683Z,6.27
2022-11-17T00:29:42.666Z,6.16
2022-11-17T00:30:44.049Z,6.21
2022-11-17T00:31:42.641Z,6.16
2022-11-17T00:32:42.629Z,6.21
2022-11-17T00:33:42.611Z,6.21
2022-11-17T00:34:42.602Z,6.28
2022-11-17T00:35:42.585Z,6.19
2022-11-17T00:36:42.577Z,6.20
2022-11-17T00:37:42.560Z,6.17
2022-11-17T00:38:42.545Z,6.19
2022-11-17T00:39:42.533Z,6.24
2022-11-17T00:40:42.654Z,6.21
2022-11-17T00:41:42.500Z,6.19
2022-11-17T00:42:42.493Z,6.14
2022-11-17T00:43:42.478Z,6.17
2022-11-17T00:44:42.467Z,6.17
2022-11-17T00:45:42.451Z,6.16
2022-11-17T00:46:42.446Z,6.05
2022-11-17T00:47:42.431Z,6.06
2022-11-17T00:48:42.420Z,6.03
2022-11-17T00:49:42.395Z,6.08
2022-11-17T00:50:42.385Z,5.99
2022-11-17T00:51:42.366Z,6.03
2022-11-17T00:52:42.355Z,6.03
2022-11-17T00:53:42.338Z,6.01
2022-11-17T00:54:42.326Z,6.03
2022-11-17T00:55:42.363Z,6.14
2022-11-17T00:56:42.423Z,6.06
2022-11-17T00:57:42.286Z,6.10
2022-11-17T00:58:42.280Z,6.10
2022-11-17T00:59:42.262Z,6.10
2022-11-17T01:00:42.254Z,6.02
2022-11-17T01:01:42.311Z,6.02
2022-11-17T01:02:42.223Z,6.11
2022-11-17T01:03:42.214Z,6.06
2022-11-17T01:04:42.196Z,6.13
2022-11-17T01:05:42.175Z,6.08
2022-11-17T01:06:42.170Z,6.11
2022-11-17T01:07:42.144Z,6.13
2022-11-17T01:08:42.140Z,6.19
2022-11-17T01:09:42.121Z,6.11
2022-11-17T01:10:42.106Z,6.13
2022-11-17T01:11:42.093Z,6.17
2022-11-17T01:12:42.193Z,6.13
2022-11-17T01:13:42.072Z,6.25
2022-11-17T01:14:42.055Z,6.19
2022-11-17T01:15:42.049Z,6.21
2022-11-17T01:16:42.027Z,6.17
2022-11-17T01:17:42.017Z,6.19
2022-11-17T01:18:42.000Z,6.17
2022-11-17T01:19:41.992Z,6.11
2022-11-17T01:20:41.978Z,6.25
2022-11-17T01:21:41.963Z,6.25
2022-11-17T01:22:41.941Z,6.32
2022-11-17T01:23:41.934Z,6.21
2022-11-17T01:24:41.917Z,6.21
2022-11-17T01:25:41.902Z,6.25
2022-11-17T01:26:41.890Z,6.35
2022-11-17T01:27:41.883Z,6.27
2022-11-17T01:28:41.894Z,6.16
2022-11-17T01:29:41.848Z,6.21
2022-11-17T01:30:41.837Z,6.27
2022-11-17T01:31:41.826Z,6.27
2022-11-17T01:32:41.814Z,6.27
2022-11-17T01:33:41.802Z,6.25
2022-11-17T01:34:41.788Z,6.27
2022-11-17T01:35:41.776Z,6.20
2022-11-17T01:36:41.755Z,6.17
2022-11-17T01:37:41.749Z,6.20
2022-11-17T01:38:41.740Z,6.35
2022-11-17T01:39:41.721Z,6.25
2022-11-17T01:40:41.694Z,6.24
2022-11-17T01:41:41.691Z,6.24
2022-11-17T01:42:41.672Z,6.30
2022-11-17T01:43:41.733Z,6.24
2022-11-17T01:44:41.668Z,6.28
2022-11-17T01:45:41.638Z,6.33
2022-11-17T01:46:41.617Z,6.30
2022-11-17T01:47:41.611Z,6.35
2022-11-17T01:48:41.594Z,6.21
2022-11-17T01:49:41.577Z,6.32
2022-11-17T01:50:41.561Z,6.35
2022-11-17T01:51:41.556Z,6.21
2022-11-17T01:52:41.803Z,6.28
2022-11-17T01:53:41.526Z,6.38
2022-11-17T01:54:41.514Z,6.25
2022-11-17T01:55:41.503Z,6.33
2022-11-17T01:56:41.484Z,6.19
2022-11-17T01:57:41.475Z,6.28
2022-11-17T01:58:41.461Z,6.25
2022-11-17T01:59:41.443Z,6.10
2022-11-17T02:00:41.551Z,6.27
2022-11-17T02:01:41.488Z,6.20
2022-11-17T02:02:41.404Z,6.17
2022-11-17T02:03:41.392Z,6.30
2022-11-17T02:04:41.378Z,6.20
2022-11-17T02:05:41.365Z,6.08
2022-11-17T02:06:41.349Z,6.10
2022-11-17T02:07:41.334Z,6.13
2022-11-17T02:08:41.315Z,6.20
2022-11-17T02:09:41.308Z,6.20
2022-11-17T02:10:41.296Z,6.11
2022-11-17T02:11:41.288Z,6.06
2022-11-17T02:12:41.269Z,6.03
2022-11-17T02:13:41.256Z,6.10
2022-11-17T02:14:41.238Z,6.10
2022-11-17T02:15:41.235Z,6.02
2022-11-17T02:16:41.325Z,5.99
2022-11-17T02:17:41.201Z,6.06
2022-11-17T02:18:41.180Z,5.93
2022-11-17T02:19:41.175Z,5.96
2022-11-17T02:20:41.155Z,5.99
2022-11-17T02:21:41.148Z,5.92
2022-11-17T02:22:41.131Z,6.03
2022-11-17T02:23:41.125Z,5.87
2022-11-17T02:24:41.100Z,5.84
2022-11-17T02:25:41.095Z,5.96
2022-11-17T02:26:41.079Z,5.90
2022-11-17T02:27:41.075Z,5.93
2022-11-17T02:28:41.054Z,5.90
2022-11-17T02:29:41.039Z,5.90
2022-11-17T02:30:41.015Z,5.81
2022-11-17T02:31:41.010Z,5.88
2022-11-17T02:32:41.107Z,5.83
2022-11-17T02:33:40.987Z,5.85
2022-11-17T02:34:40.971Z,5.92
2022-11-17T02:35:40.960Z,5.85
2022-11-17T02:36:40.941Z,5.80
2022-11-17T02:37:40.929Z,5.81
2022-11-17T02:38:40.913Z,5.78
2022-11-17T02:39:40.894Z,5.70
2022-11-17T02:40:40.886Z,5.80
2022-11-17T02:41:40.880Z,5.62
2022-11-17T02:42:40.859Z,5.67
2022-11-17T02:43:40.848Z,5.85
2022-11-17T02:44:40.831Z,5.62
2022-11-17T02:45:40.827Z,5.77
2022-11-17T02:46:40.808Z,5.74
2022-11-17T02:47:40.797Z,5.84
2022-11-17T02:48:40.867Z,5.83
2022-11-17T02:49:40.764Z,5.83
2022-11-17T02:50:40.747Z,5.92
2022-11-17T02:51:40.733Z,5.92
2022-11-17T02:52:40.719Z,6.06
2022-11-17T02:53:40.710Z,6.05
2022-11-17T02:54:40.690Z,6.05
2022-11-17T02:55:40.682Z,6.08
2022-11-17T02:56:40.669Z,6.02
2022-11-17T02:57:40.657Z,6.16
2022-11-17T02:58:40.643Z,6.27
2022-11-17T02:59:40.628Z,6.28
2022-11-17T03:00:40.616Z,6.35
2022-11-17T03:01:40.657Z,6.38
2022-11-17T03:02:40.586Z,6.25
2022-11-17T03:03:40.576Z,6.32
2022-11-17T03:04:40.671Z,6.38
2022-11-17T03:05:40.545Z,6.33
2022-11-17T03:06:40.528Z,6.36
2022-11-17T03:07:40.518Z,6.39
2022-11-17T03:08:40.498Z,6.42
2022-11-17T03:09:40.491Z,6.43
2022-11-17T03:10:40.472Z,6.48
2022-11-17T03:11:40.462Z,6.42
2022-11-17T03:12:40.444Z,6.38
2022-11-17T03:13:40.447Z,6.43
2022-11-17T03:14:40.421Z,6.40
2022-11-17T03:15:40.416Z,6.42
2022-11-17T03:16:40.393Z,6.43
2022-11-17T03:17:40.385Z,6.45
2022-11-17T03:18:40.369Z,6.43
2022-11-17T03:19:40.355Z,6.45
2022-11-17T03:20:40.356Z,6.50
2022-11-17T03:21:40.329Z,6.27
2022-11-17T03:22:40.315Z,6.36
2022-11-17T03:23:40.306Z,6.42
2022-11-17T03:24:40.289Z,6.38
2022-11-17T03:25:40.276Z,6.33
2022-11-17T03:26:40.263Z,6.32
2022-11-17T03:27:40.253Z,6.40
2022-11-17T03:28:40.238Z,6.30
2022-11-17T03:29:40.223Z,6.27
2022-11-17T03:30:40.205Z,6.27
2022-11-17T03:31:40.194Z,6.36
2022-11-17T03:32:40.183Z,6.25
2022-11-17T03:33:40.168Z,6.42
2022-11-17T03:34:40.164Z,6.50
2022-11-17T03:35:40.143Z,6.43
2022-11-17T03:36:40.247Z,6.43
2022-11-17T03:37:40.115Z,6.42
2022-11-17T03:38:40.101Z,6.43
2022-11-17T03:39:40.129Z,6.43
2022-11-17T03:40:40.073Z,6.43
2022-11-17T03:41:40.059Z,6.42
2022-11-17T03:42:40.050Z,6.51
2022-11-17T03:43:40.033Z,6.40
2022-11-17T03:44:40.027Z,6.48
2022-11-17T03:45:40.006Z,6.43
2022-11-17T03:46:39.987Z,6.43
2022-11-17T03:47:39.971Z,6.51
2022-11-17T03:48:39.963Z,6.45
2022-11-17T03:49:39.952Z,6.45
2022-11-17T03:50:39.945Z,6.45
2022-11-17T03:51:39.921Z,6.53
2022-11-17T03:52:39.933Z,6.46
2022-11-17T03:53:39.894Z,6.48
2022-11-17T03:54:39.879Z,6.63
2022-11-17T03:55:39.868Z,6.63
2022-11-17T03:56:39.855Z,6.58
2022-11-17T03:57:39.839Z,6.61
2022-11-17T03:58:39.833Z,6.51
2022-11-17T03:59:39.867Z,6.61
2022-11-17T04:00:39.807Z,6.45
2022-11-17T04:01:39.890Z,6.61
2022-11-17T04:02:39.774Z,6.60
2022-11-17T04:03:39.755Z,6.61
2022-11-17T04:04:39.744Z,6.60
2022-11-17T04:05:39.729Z,6.60
2022-11-17T04:06:39.718Z,6.57
2022-11-17T04:07:39.716Z,6.72
2022-11-17T04:08:39.803Z,6.65
2022-11-17T04:09:39.672Z,6.64
2022-11-17T04:10:39.670Z,6.57
2022-11-17T04:11:39.648Z,6.68
2022-11-17T04:12:39.642Z,6.64
2022-11-17T04:13:39.619Z,6.68
2022-11-17T04:14:39.608Z,6.60
2022-11-17T04:15:39.593Z,6.54
2022-11-17T04:16:39.587Z,6.64
2022-11-17T04:17:39.564Z,6.55
2022-11-17T04:18:39.562Z,6.64
2022-11-17T04:19:39.541Z,6.61
2022-11-17T04:20:39.537Z,6.60
2022-11-17T04:21:39.517Z,6.64
2022-11-17T04:22:39.501Z,6.50
2022-11-17T04:23:39.482Z,6.55
2022-11-17T04:24:39.593Z,6.64
2022-11-17T04:25:39.458Z,6.51
2022-11-17T04:26:39.454Z,6.63
2022-11-17T04:27:39.435Z,6.64
2022-11-17T04:28:39.430Z,6.64
2022-11-17T04:29:39.407Z,6.57
2022-11-17T04:30:39.393Z,6.61
2022-11-17T04:31:39.373Z,6.60
2022-11-17T04:32:39.361Z,6.68
2022-11-17T04:33:39.348Z,6.69
2022-11-17T04:34:39.345Z,6.58
2022-11-17T04:35:39.324Z,6.68
2022-11-17T04:36:39.315Z,6.58
2022-11-17T04:37:39.293Z,6.68
2022-11-17T04:38:39.280Z,6.69
2022-11-17T04:39:39.263Z,6.69
2022-11-17T04:40:39.273Z,6.65
2022-11-17T04:41:39.239Z,6.71
2022-11-17T04:42:39.232Z,6.64
2022-11-17T04:43:39.218Z,6.64
2022-11-17T04:44:39.203Z,6.69
2022-11-17T04:45:39.183Z,6.72
2022-11-17T04:46:39.179Z,6.69
2022-11-17T04:47:39.161Z,6.72
2022-11-17T04:48:39.149Z,6.76
2022-11-17T04:49:39.137Z,6.69
2022-11-17T04:50:39.121Z,6.68
2022-11-17T04:51:39.108Z,6.78
2022-11-17T04:52:39.095Z,6.78
2022-11-17T04:53:39.082Z,6.65
2022-11-17T04:54:39.067Z,6.71
2022-11-17T04:55:39.051Z,6.78
2022-11-17T04:56:39.121Z,6.73
2022-11-17T04:57:39.029Z,6.68
2022-11-17T04:58:39.020Z,6.65
2022-11-17T04:59:39.009Z,6.72
2022-11-17T05:00:38.993Z,6.73
2022-11-17T05:01:38.969Z,6.73
2022-11-17T05:02:39.069Z,6.68
2022-11-17T05:03:38.945Z,6.69
2022-11-17T05:04:38.930Z,6.72
2022-11-17T05:05:38.915Z,6.71
2022-11-17T05:06:38.906Z,6.58
2022-11-17T05:07:38.974Z,6.73
2022-11-17T05:08:38.888Z,6.75
2022-11-17T05:09:38.870Z,6.68
2022-11-17T05:10:38.894Z,6.58
2022-11-17T05:11:38.841Z,6.68
2022-11-17T05:12:38.946Z,6.72
2022-11-17T05:13:38.852Z,6.63
2022-11-17T05:14:38.809Z,6.58
2022-11-17T05:15:38.782Z,6.71
2022-11-17T05:16:38.773Z,6.69
2022-11-17T05:17:38.760Z,6.61
2022-11-17T05:18:38.750Z,6.71
2022-11-17T05:19:38.732Z,6.79
2022-11-17T05:20:38.723Z,6.79
2022-11-17T05:21:38.710Z,6.65
2022-11-17T05:22:38.693Z,6.71
2022-11-17T05:23:38.680Z,6.72
2022-11-17T05:24:38.670Z,6.87
2022-11-17T05:25:38.649Z,6.78
2022-11-17T05:26:38.639Z,6.73
2022-11-17T05:27:38.633Z,6.75
2022-11-17T05:28:38.635Z,6.78
2022-11-17T05:29:38.606Z,6.79
2022-11-17T05:30:38.583Z,6.75
2022-11-17T05:31:38.569Z,6.72
2022-11-17T05:32:38.557Z,6.81
2022-11-17T05:33:38.717Z,6.76
2022-11-17T05:34:38.535Z,6.78
2022-11-17T05:35:38.524Z,6.81
2022-11-17T05:36:38.510Z,6.83
2022-11-17T05:37:38.498Z,6.68
2022-11-17T05:38:38.479Z,6.71
2022-11-17T05:39:38.483Z,6.78
2022-11-17T05:40:38.453Z,6.65
2022-11-17T05:41:38.443Z,6.78
2022-11-17T05:42:38.424Z,6.75
2022-11-17T05:43:38.462Z,6.69
2022-11-17T05:44:38.416Z,6.69
2022-11-17T05:45:38.387Z,6.72
2022-11-17T05:46:38.377Z,6.69
2022-11-17T05:47:38.364Z,6.64
2022-11-17T05:48:38.344Z,6.63
2022-11-17T05:49:38.351Z,6.76
2022-11-17T05:50:38.328Z,6.68
2022-11-17T05:51:38.364Z,6.60
2022-11-17T05:52:38.295Z,6.65
2022-11-17T05:53:38.400Z,6.61
2022-11-17T05:54:38.269Z,6.61
2022-11-17T05:55:38.252Z,6.61
2022-11-17T05:56:38.240Z,6.60
2022-11-17T05:57:38.230Z,6.51
2022-11-17T05:58:38.215Z,6.55
2022-11-17T05:59:38.208Z,6.46
2022-11-17T06:00:38.302Z,6.54
2022-11-17T06:01:38.181Z,6.42
2022-11-17T06:02:38.158Z,6.40
2022-11-17T06:03:38.416Z,6.32
2022-11-17T06:04:38.168Z,6.32
2022-11-17T06:05:38.125Z,6.30
2022-11-17T06:06:38.109Z,6.30
2022-11-17T06:07:38.173Z,6.24
2022-11-17T06:08:38.081Z,6.24
2022-11-17T06:09:38.077Z,6.24
2022-11-17T06:10:38.054Z,6.32
2022-11-17T06:11:38.038Z,6.24
2022-11-17T06:12:38.023Z,6.30
2022-11-17T06:13:38.388Z,6.21
2022-11-17T06:14:38.001Z,6.20
2022-11-17T06:15:37.991Z,6.24
2022-11-17T06:16:38.090Z,6.33
2022-11-17T06:17:37.963Z,6.40
2022-11-17T06:18:37.948Z,6.24
2022-11-17T06:19:37.941Z,6.43
2022-11-17T06:20:37.923Z,6.39
2022-11-17T06:22:04.532Z,6.45
2022-11-17T06:22:41.799Z,6.43
2022-11-17T06:23:38.198Z,6.51
2022-11-17T06:24:37.865Z,6.36
2022-11-17T06:25:37.857Z,6.36
2022-11-17T06:26:37.843Z,6.50
2022-11-17T06:27:37.831Z,6.51
2022-11-17T06:28:37.817Z,6.48
2022-11-17T06:29:43.653Z,6.53
2022-11-17T06:30:38.808Z,6.46
2022-11-17T06:31:37.775Z,6.38
2022-11-17T06:32:37.816Z,6.48
2022-11-17T06:33:38.023Z,6.42
2022-11-17T06:34:37.736Z,6.45
2022-11-17T06:35:37.728Z,6.35
2022-11-17T06:36:37.706Z,6.28
2022-11-17T06:37:37.714Z,6.32
2022-11-17T06:38:37.675Z,6.30
2022-11-17T06:39:37.672Z,6.24
2022-11-17T06:40:37.651Z,6.39
2022-11-17T06:41:37.641Z,6.40
2022-11-17T06:42:37.627Z,6.30
2022-11-17T06:43:37.969Z,6.33
2022-11-17T06:44:37.598Z,6.30
2022-11-17T06:45:37.591Z,6.32
2022-11-17T06:46:37.569Z,6.20
2022-11-17T06:47:37.561Z,6.24
2022-11-17T06:48:38.221Z,6.24
2022-11-17T06:49:37.532Z,6.13
2022-11-17T06:50:37.516Z,6.27
2022-11-17T06:51:42.318Z,6.19
2022-11-17T06:52:38.523Z,6.14
2022-11-17T06:53:37.871Z,6.14
2022-11-17T06:54:37.460Z,6.25
2022-11-17T06:55:37.453Z,6.16
2022-11-17T06:56:37.436Z,6.27
2022-11-17T06:57:37.424Z,6.17
2022-11-17T06:58:37.815Z,6.30
2022-11-17T06:59:37.399Z,6.39
2022-11-17T07:00:37.453Z,6.35
2022-11-17T07:01:37.376Z,6.33
2022-11-17T07:02:37.354Z,6.36
2022-11-17T07:03:37.565Z,6.50
2022-11-17T07:04:37.442Z,6.54
2022-11-17T07:05:39.245Z,6.53
2022-11-17T07:06:37.301Z,6.61
2022-11-17T07:07:37.351Z,6.55
2022-11-17T07:08:37.556Z,6.57
2022-11-17T07:09:37.264Z,6.71
2022-11-17T07:10:37.244Z,6.71
2022-11-17T07:11:37.237Z,6.65
2022-11-17T07:12:37.216Z,6.78
2022-11-17T07:13:37.207Z,6.71
2022-11-17T07:14:37.192Z,6.81
2022-11-17T07:15:37.186Z,6.79
2022-11-17T07:16:37.167Z,6.82
2022-11-17T07:17:37.157Z,6.83
2022-11-17T07:18:37.424Z,6.83
2022-11-17T07:19:37.127Z,6.99
2022-11-17T07:20:37.236Z,6.91
2022-11-17T07:21:37.101Z,7.01
2022-11-17T07:22:37.089Z,6.91
2022-11-17T07:23:37.082Z,6.96
2022-11-17T07:24:37.066Z,6.99
2022-11-17T07:25:37.050Z,7.09
2022-11-17T07:26:37.031Z,6.94
2022-11-17T07:27:37.027Z,6.93
2022-11-17T07:28:37.382Z,6.94
2022-11-17T07:29:37.002Z,6.96
2022-11-17T07:30:36.985Z,7.04
2022-11-17T07:31:36.977Z,7.04
2022-11-17T07:32:36.953Z,7.05
2022-11-17T07:33:36.959Z,6.93
2022-11-17T07:34:36.925Z,7.04
2022-11-17T07:35:36.920Z,7.08
2022-11-17T07:36:37.017Z,7.01
2022-11-17T07:37:36.892Z,7.19
2022-11-17T07:38:37.291Z,7.09
2022-11-17T07:39:36.874Z,7.21
2022-11-17T07:40:36.856Z,7.15
2022-11-17T07:41:36.840Z,7.21
2022-11-17T07:42:36.824Z,7.21
2022-11-17T07:43:36.815Z,7.41
2022-11-17T07:44:36.798Z,7.50
2022-11-17T07:45:36.788Z,7.91
2022-11-17T07:46:36.766Z,7.92
2022-11-17T07:47:36.757Z,8.12
2022-11-17T07:48:37.099Z,8.34
2022-11-17T07:49:36.726Z,8.42
2022-11-17T07:50:36.722Z,8.58
2022-11-17T07:51:36.705Z,8.79
2022-11-17T07:52:41.252Z,8.64
2022-11-17T07:53:36.670Z,8.67
2022-11-17T07:54:36.661Z,8.78
2022-11-17T07:55:36.653Z,8.64
2022-11-17T07:56:36.634Z,8.83
2022-11-17T07:57:36.626Z,8.88
2022-11-17T07:58:36.990Z,8.98
2022-11-17T07:59:36.594Z,9.04
2022-11-17T08:00:36.634Z,8.96
2022-11-17T08:01:36.578Z,9.04
2022-11-17T08:02:36.551Z,9.08
2022-11-17T08:03:36.588Z,9.20
2022-11-17T08:04:36.523Z,9.16
2022-11-17T08:05:43.063Z,9.19
2022-11-17T08:06:37.527Z,9.27
2022-11-17T08:07:36.583Z,9.49
2022-11-17T08:08:36.986Z,9.59
2022-11-17T08:09:36.467Z,9.53
2022-11-17T08:10:36.442Z,9.42
2022-11-17T08:11:36.439Z,9.53
2022-11-17T08:12:36.415Z,9.71
2022-11-17T08:13:36.407Z,9.75
2022-11-17T08:14:36.389Z,9.83
2022-11-17T08:15:36.382Z,9.89
2022-11-17T08:16:36.364Z,9.85
2022-11-17T08:17:36.357Z,10.02
2022-11-17T08:18:36.871Z,9.98
2022-11-17T08:19:36.332Z,10.01
2022-11-17T08:20:36.315Z,9.89
2022-11-17T08:21:36.305Z,9.93
2022-11-17T08:22:36.290Z,9.88
2022-11-17T08:23:36.280Z,9.93
2022-11-17T08:24:36.377Z,10.10
2022-11-17T08:25:36.252Z,9.99
2022-11-17T08:26:36.228Z,10.10
2022-11-17T08:27:36.224Z,10.18
2022-11-17T08:28:36.592Z,10.18
2022-11-17T08:29:36.195Z,10.13
2022-11-17T08:30:36.185Z,10.09
2022-11-17T08:31:36.167Z,10.25
2022-11-17T08:32:36.156Z,10.22
2022-11-17T08:33:36.142Z,10.10
2022-11-17T08:34:36.124Z,10.28
2022-11-17T08:35:37.740Z,10.20
2022-11-17T08:36:36.103Z,10.25
2022-11-17T08:37:36.091Z,10.46
2022-11-17T08:38:36.411Z,10.29
2022-11-17T08:39:36.065Z,10.43
2022-11-17T08:40:36.071Z,10.51
2022-11-17T08:41:36.033Z,10.55
2022-11-17T08:42:36.020Z,10.55
2022-11-17T08:43:36.013Z,10.60
2022-11-17T08:44:36.014Z,10.73
2022-11-17T08:45:35.988Z,10.63
2022-11-17T08:46:36.100Z,10.70
2022-11-17T08:47:35.968Z,10.70
2022-11-17T08:48:36.394Z,10.65
2022-11-17T08:49:35.928Z,10.66
2022-11-17T08:50:35.912Z,10.65
2022-11-17T08:51:35.901Z,10.63
2022-11-17T08:52:35.889Z,10.84
2022-11-17T08:53:35.868Z,10.86
2022-11-17T08:54:35.851Z,10.80
2022-11-17T08:55:40.752Z,10.84
2022-11-17T08:56:35.988Z,10.91
2022-11-17T08:57:35.869Z,11.03
2022-11-17T08:58:36.074Z,10.87
2022-11-17T08:59:35.790Z,10.88
2022-11-17T09:00:35.840Z,10.93
2022-11-17T09:01:35.812Z,10.88
2022-11-17T09:02:35.757Z,10.83
2022-11-17T09:03:35.738Z,10.86
2022-11-17T09:04:35.723Z,10.99
2022-11-17T09:05:35.716Z,10.86
2022-11-17T09:06:35.695Z,10.93
2022-11-17T09:07:35.852Z,11.03
2022-11-17T09:08:56.448Z,10.98
2022-11-17T09:09:36.784Z,10.95
2022-11-17T09:10:35.646Z,11.08
2022-11-17T09:11:35.631Z,10.99
2022-11-17T09:12:35.643Z,11.05
2022-11-17T09:13:35.601Z,10.98
2022-11-17T09:14:35.584Z,10.94
2022-11-17T09:15:35.574Z,10.94
2022-11-17T09:16:35.563Z,10.88
2022-11-17T09:17:35.542Z,10.93
2022-11-17T09:18:35.845Z,10.99
2022-11-17T09:19:35.524Z,11.01
2022-11-17T09:20:35.506Z,10.93
2022-11-17T09:21:35.499Z,11.01
2022-11-17T09:22:35.486Z,10.94
2022-11-17T09:23:35.788Z,11.02
2022-11-17T09:24:35.464Z,11.05
2022-11-17T09:25:35.484Z,11.09
2022-11-17T09:26:35.427Z,10.99
2022-11-17T09:27:35.452Z,11.08
2022-11-17T09:28:35.884Z,11.02
2022-11-17T09:29:35.445Z,11.09
2022-11-17T09:30:35.369Z,11.03
2022-11-17T09:31:35.420Z,11.03
2022-11-17T09:32:35.350Z,11.09
2022-11-17T09:33:35.331Z,11.08
2022-11-17T09:34:35.457Z,11.17
2022-11-17T09:35:35.303Z,10.99
2022-11-17T09:36:35.291Z,10.94
2022-11-17T09:37:35.276Z,10.93
2022-11-17T09:38:35.624Z,10.86
2022-11-17T09:39:35.254Z,10.95
2022-11-17T09:40:37.952Z,10.86
2022-11-17T09:41:35.231Z,10.98
2022-11-17T09:42:35.212Z,10.90
2022-11-17T09:43:35.210Z,10.93
2022-11-17T09:44:35.226Z,10.93
2022-11-17T09:45:35.176Z,10.87
2022-11-17T09:46:35.155Z,10.84
2022-11-17T09:47:35.150Z,10.91
2022-11-17T09:48:41.025Z,10.80
2022-11-17T09:49:36.148Z,10.94
2022-11-17T09:50:35.110Z,10.84
2022-11-17T09:51:35.109Z,10.81
2022-11-17T09:52:35.071Z,10.88
2022-11-17T09:53:35.320Z,10.94
2022-11-17T09:54:35.054Z,10.94
2022-11-17T09:55:35.067Z,11.05
2022-11-17T09:56:35.027Z,10.93
2022-11-17T09:57:35.033Z,10.95
2022-11-17T09:58:35.389Z,11.03
2022-11-17T09:59:35.127Z,11.20
2022-11-17T10:00:35.088Z,11.41
2022-11-17T10:01:34.964Z,11.24
2022-11-17T10:02:35.009Z,11.42
2022-11-17T10:03:38.748Z,11.39
2022-11-17T10:04:35.937Z,11.44
2022-11-17T10:05:34.909Z,11.45
2022-11-17T10:06:34.889Z,11.59
2022-11-17T10:07:34.994Z,11.53
2022-11-17T10:08:34.866Z,11.45
2022-11-17T10:09:34.844Z,11.51
2022-11-17T10:10:34.838Z,11.62
2022-11-17T10:11:34.825Z,11.56
2022-11-17T10:12:34.822Z,11.54
2022-11-17T10:13:35.156Z,11.69
2022-11-17T10:14:34.778Z,11.77
2022-11-17T10:15:34.768Z,11.98
2022-11-17T10:16:34.773Z,12.13
2022-11-17T10:17:34.739Z,12.13
2022-11-17T10:18:37.875Z,12.13
2022-11-17T10:19:34.722Z,12.22
2022-11-17T10:20:34.895Z,12.22
2022-11-17T10:21:34.695Z,12.22
2022-11-17T10:22:34.686Z,12.15
2022-11-17T10:23:35.049Z,12.11
2022-11-17T10:24:34.648Z,11.98
2022-11-17T10:25:34.638Z,12.05
2022-11-17T10:26:34.616Z,12.18
2022-11-17T10:27:34.619Z,12.37
2022-11-17T10:28:34.598Z,12.49
2022-11-17T10:29:34.582Z,12.51
2022-11-17T10:30:34.572Z,12.84
2022-11-17T10:31:34.564Z,13.14
2022-11-17T10:32:34.671Z,13.46
2022-11-17T10:33:34.881Z,13.51
2022-11-17T10:34:40.714Z,13.47
2022-11-17T10:35:35.534Z,13.38
2022-11-17T10:36:34.487Z,13.28
2022-11-17T10:37:34.478Z,13.36
2022-11-17T10:38:34.465Z,13.50
2022-11-17T10:39:34.451Z,13.38
2022-11-17T10:40:34.438Z,13.38
2022-11-17T10:41:34.427Z,13.32
2022-11-17T10:42:34.407Z,13.16
2022-11-17T10:43:34.854Z,12.99
2022-11-17T10:44:34.377Z,13.09
2022-11-17T10:45:34.362Z,13.16
2022-11-17T10:46:44.988Z,13.27
2022-11-17T10:47:35.368Z,13.41
2022-11-17T10:48:34.353Z,13.35
2022-11-17T10:49:34.320Z,13.39
2022-11-17T10:50:34.294Z,13.43
2022-11-17T10:51:34.286Z,13.39
2022-11-17T10:52:34.269Z,13.17
2022-11-17T10:53:38.114Z,12.94
2022-11-17T10:54:35.266Z,12.85
2022-11-17T10:55:34.229Z,12.69
2022-11-17T10:56:34.216Z,12.66
2022-11-17T10:57:34.204Z,12.70
2022-11-17T10:58:34.196Z,12.70
2022-11-17T10:59:34.181Z,12.63
2022-11-17T11:00:34.163Z,12.66
2022-11-17T11:01:34.203Z,12.59
2022-11-17T11:02:34.162Z,12.51
2022-11-17T11:03:34.453Z,12.56
2022-11-17T11:04:34.141Z,12.62
2022-11-17T11:05:34.099Z,12.70
2022-11-17T11:06:34.079Z,12.67
2022-11-17T11:07:34.103Z,12.63
2022-11-17T11:08:34.057Z,12.69
2022-11-17T11:09:34.042Z,12.70
2022-11-17T11:10:34.037Z,13.16
2022-11-17T11:11:36.449Z,13.09
2022-11-17T11:12:34.003Z,12.87
2022-11-17T11:13:34.240Z,12.70
2022-11-17T11:14:34.005Z,12.61
2022-11-17T11:15:33.966Z,12.49
2022-11-17T11:16:33.949Z,12.44
2022-11-17T11:17:33.938Z,12.54
2022-11-17T11:18:33.921Z,12.40
2022-11-17T11:19:33.907Z,12.34
2022-11-17T11:20:33.913Z,12.36
2022-11-17T11:21:33.879Z,12.41
2022-11-17T11:22:33.904Z,12.63
2022-11-17T11:23:33.859Z,13.09
2022-11-17T11:24:33.867Z,13.50
2022-11-17T11:25:33.832Z,13.65
2022-11-17T11:26:33.817Z,13.47
2022-11-17T11:27:33.808Z,13.47
2022-11-17T11:28:33.793Z,13.32
2022-11-17T11:29:33.779Z,13.17
2022-11-17T11:30:33.765Z,13.07
2022-11-17T11:31:33.751Z,12.98
2022-11-17T11:32:33.732Z,13.07
2022-11-17T11:33:33.722Z,13.07
2022-11-17T11:34:33.705Z,12.98
2022-11-17T11:35:33.697Z,12.92
2022-11-17T11:36:33.701Z,13.04
2022-11-17T11:37:33.664Z,13.04
2022-11-17T11:38:33.654Z,13.27
2022-11-17T11:39:33.642Z,13.01
2022-11-17T11:40:33.632Z,12.98
2022-11-17T11:41:33.614Z,13.13
2022-11-17T11:42:33.618Z,13.25
2022-11-17T11:43:33.588Z,13.27
2022-11-17T11:44:33.672Z,13.36
2022-11-17T11:45:33.576Z,13.44
2022-11-17T11:46:33.539Z,13.63
2022-11-17T11:47:33.529Z,13.79
2022-11-17T11:48:33.569Z,14.02
2022-11-17T11:49:33.508Z,14.39
2022-11-17T11:50:37.647Z,14.39
2022-11-17T11:51:34.513Z,14.16
2022-11-17T11:52:33.498Z,14.12
2022-11-17T11:53:33.453Z,15.15
2022-11-17T11:54:33.430Z,15.41
2022-11-17T11:55:33.424Z,15.09
2022-11-17T11:56:33.456Z,14.74
2022-11-17T11:57:33.465Z,14.52
2022-11-17T11:58:33.401Z,14.56
2022-11-17T11:59:33.382Z,14.44
2022-11-17T12:00:33.359Z,14.44
2022-11-17T12:01:33.362Z,15.52
2022-11-17T12:02:33.459Z,15.25
2022-11-17T12:03:33.357Z,15.67
2022-11-17T12:04:33.300Z,16.78
2022-11-17T12:05:33.292Z,16.01
2022-11-17T12:06:33.279Z,15.49
2022-11-17T12:07:33.347Z,15.59
2022-11-17T12:08:33.273Z,16.59
2022-11-17T12:09:33.247Z,17.40
2022-11-17T12:10:33.222Z,17.96
2022-11-17T12:11:33.228Z,17.15
2022-11-17T12:12:33.247Z,16.75
2022-11-17T12:13:33.188Z,16.62
2022-11-17T12:14:33.187Z,16.55
2022-11-17T12:15:33.184Z,17.15
2022-11-17T12:16:33.401Z,17.98
2022-11-17T12:17:33.137Z,18.53
2022-11-17T12:18:33.127Z,19.40
2022-11-17T12:19:33.105Z,19.60
2022-11-17T12:20:33.099Z,19.02
2022-11-17T12:21:33.111Z,18.39
2022-11-17T12:22:33.080Z,17.96
2022-11-17T12:23:33.067Z,17.06
2022-11-17T12:24:33.069Z,16.65
2022-11-17T12:25:33.062Z,17.74
2022-11-17T12:26:33.050Z,17.12
2022-11-17T12:27:33.026Z,16.73
2022-11-17T12:28:32.990Z,16.91
2022-11-17T12:29:33.001Z,16.77
2022-11-17T12:30:32.963Z,17.60
2022-11-17T12:31:32.986Z,18.62
2022-11-17T12:32:32.940Z,19.42
2022-11-17T12:33:33.188Z,19.86
2022-11-17T12:34:32.904Z,20.19
2022-11-17T12:35:32.891Z,20.54
2022-11-17T12:36:32.884Z,21.01
2022-11-17T12:37:32.902Z,21.51
2022-11-17T12:38:32.849Z,21.45
2022-11-17T12:39:32.850Z,21.09
2022-11-17T12:40:32.869Z,20.75
2022-11-17T12:41:32.838Z,20.19
2022-11-17T12:42:32.803Z,19.89
2022-11-17T12:43:32.851Z,19.95
2022-11-17T12:44:33.036Z,19.58
2022-11-17T12:45:36.282Z,19.57
2022-11-17T12:46:33.795Z,18.62
2022-11-17T12:47:32.730Z,17.87
2022-11-17T12:48:34.789Z,17.80
2022-11-17T12:49:32.702Z,17.62
2022-11-17T12:50:32.710Z,17.17
2022-11-17T12:51:32.698Z,17.66
2022-11-17T12:52:32.699Z,17.27
2022-11-17T12:53:32.653Z,16.80
2022-11-17T12:54:32.635Z,16.18
2022-11-17T12:55:32.626Z,15.80
2022-11-17T12:56:32.631Z,15.68
2022-11-17T12:57:32.740Z,15.40
2022-11-17T12:58:32.591Z,15.37
2022-11-17T12:59:32.893Z,15.12
2022-11-17T13:00:32.562Z,14.91
2022-11-17T13:01:32.579Z,14.79
2022-11-17T13:02:32.536Z,14.61
2022-11-17T13:03:32.518Z,14.48
2022-11-17T13:04:32.499Z,14.59
2022-11-17T13:05:32.490Z,14.67
2022-11-17T13:06:36.686Z,14.64
2022-11-17T13:07:32.518Z,14.79
2022-11-17T13:08:32.454Z,15.15